Time;durP1;ratioP1;P1;durP2;ratioP2;P2;SDS_P1;SDS_P2;PMS_P1;PMS_P2;Temp;Humidity;BMP_temperature;BMP_pressure;BME280_temperature;BME280_humidity;BME280_pressure;Samples;Min_cycle;Max_cycle;Signal;HPM_P1;HPM_P2
2021/10/22 00:00:21;;;;;;;5.72;2.30;;;10.20;92.50;;;;;;5087078;28;20032;-67
2021/10/22 00:02:47;;;;;;;7.40;1.90;;;10.20;92.50;;;;;;5077068;28;20024;-67
2021/10/22 00:05:12;;;;;;;10.98;2.47;;;10.20;92.50;;;;;;5088367;28;20450;-67
2021/10/22 00:07:38;;;;;;;7.20;2.30;;;10.20;92.50;;;;;;5093839;28;20053;-67
2021/10/22 00:10:06;;;;;;;8.30;1.95;;;10.10;92.50;;;;;;5090763;28;20058;-67
2021/10/22 00:12:31;;;;;;;8.57;2.05;;;10.10;92.50;;;;;;5074826;28;20029;-67
2021/10/22 00:14:57;;;;;;;10.38;2.33;;;10.10;92.50;;;;;;5074070;28;20519;-67
2021/10/22 00:17:23;;;;;;;5.28;1.85;;;10.10;92.60;;;;;;5073809;28;20162;-67
2021/10/22 00:19:49;;;;;;;11.45;3.75;;;10.10;92.60;;;;;;5077588;28;20025;-67
2021/10/22 00:22:15;;;;;;;10.20;2.38;;;10.00;92.60;;;;;;5091731;28;20486;-67
2021/10/22 00:24:40;;;;;;;10.02;2.00;;;10.00;92.60;;;;;;5085116;28;20117;-67
2021/10/22 00:27:06;;;;;;;9.32;1.95;;;10.00;92.60;;;;;;5082003;28;20060;-67
2021/10/22 00:29:32;;;;;;;6.57;1.83;;;10.00;92.60;;;;;;5092208;28;20024;-67
2021/10/22 00:31:57;;;;;;;6.43;1.77;;;10.00;92.60;;;;;;5075750;28;20035;-67
2021/10/22 00:34:23;;;;;;;8.15;2.70;;;10.00;92.60;;;;;;5106691;28;20063;-67
2021/10/22 00:36:48;;;;;;;3.97;1.80;;;10.00;92.60;;;;;;5085592;28;20034;-67
2021/10/22 00:39:14;;;;;;;9.73;2.40;;;10.00;92.60;;;;;;5091806;28;20020;-67
2021/10/22 00:41:41;;;;;;;8.60;2.20;;;10.00;92.60;;;;;;5090947;28;20066;-67
2021/10/22 00:44:06;;;;;;;8.55;1.90;;;9.90;92.70;;;;;;5079685;28;20040;-67
2021/10/22 00:46:33;;;;;;;7.22;2.22;;;9.90;92.70;;;;;;5073436;28;20131;-67
2021/10/22 00:48:59;;;;;;;7.60;2.33;;;9.90;92.60;;;;;;5079067;28;20414;-67
2021/10/22 00:51:27;;;;;;;11.40;2.22;;;9.90;92.60;;;;;;5081431;28;20141;-67
2021/10/22 00:53:52;;;;;;;10.18;2.15;;;9.90;92.60;;;;;;5092006;28;20328;-67
2021/10/22 00:56:18;;;;;;;6.78;2.10;;;9.90;92.60;;;;;;5074140;28;20036;-67
2021/10/22 00:58:45;;;;;;;7.90;2.40;;;9.90;92.60;;;;;;5072662;28;20028;-67
2021/10/22 01:01:10;;;;;;;9.68;2.72;;;9.90;92.60;;;;;;5081409;28;20475;-67
2021/10/22 01:03:36;;;;;;;5.82;1.70;;;9.80;92.60;;;;;;5092723;28;20027;-67
2021/10/22 01:06:03;;;;;;;11.35;2.03;;;9.80;92.60;;;;;;5077772;28;20028;-67
2021/10/22 01:08:30;;;;;;;8.57;2.13;;;9.80;92.60;;;;;;5072601;28;20032;-68
2021/10/22 01:10:57;;;;;;;7.65;2.00;;;9.80;92.60;;;;;;5079116;28;20036;-67
2021/10/22 01:13:23;;;;;;;6.72;1.90;;;9.80;92.60;;;;;;5085516;28;20036;-67
2021/10/22 01:15:49;;;;;;;7.38;1.92;;;9.80;92.60;;;;;;5076774;28;20990;-68
2021/10/22 01:18:15;;;;;;;7.78;2.35;;;9.70;92.60;;;;;;5072379;28;20032;-67
2021/10/22 01:20:41;;;;;;;10.95;2.72;;;9.70;92.60;;;;;;5071307;28;20468;-67
2021/10/22 01:23:08;;;;;;;8.50;2.38;;;9.70;92.50;;;;;;5072092;28;20048;-68
2021/10/22 01:25:33;;;;;;;10.45;2.55;;;9.70;92.60;;;;;;5079759;28;20028;-67
2021/10/22 01:27:59;;;;;;;7.60;2.03;;;9.70;92.50;;;;;;5092459;28;20541;-67
2021/10/22 01:30:27;;;;;;;6.15;2.03;;;9.70;92.50;;;;;;5081733;28;20052;-67
2021/10/22 01:32:59;;;;;;;7.63;2.67;;;9.70;92.50;;;;;;5076906;28;20508;-67
2021/10/22 01:35:24;;;;;;;7.18;2.00;;;9.70;92.60;;;;;;5078193;28;20115;-67
2021/10/22 01:37:50;;;;;;;10.20;2.42;;;9.70;92.70;;;;;;5078507;28;20523;-67
2021/10/22 01:40:15;;;;;;;5.82;2.03;;;9.60;92.70;;;;;;5070751;28;20032;-67
2021/10/22 01:42:41;;;;;;;8.95;2.58;;;9.60;92.70;;;;;;5079015;28;20036;-67
2021/10/22 01:45:08;;;;;;;7.32;2.58;;;9.70;92.70;;;;;;5085583;28;20031;-67
2021/10/22 01:47:33;;;;;;;14.85;3.95;;;9.60;92.60;;;;;;5078546;28;20024;-67
2021/10/22 01:49:59;;;;;;;6.47;2.03;;;9.60;92.70;;;;;;5073721;28;20032;-67
2021/10/22 01:52:25;;;;;;;5.45;1.80;;;9.60;92.70;;;;;;5071071;28;20107;-67
2021/10/22 01:54:50;;;;;;;6.88;2.30;;;9.60;92.70;;;;;;5073509;28;20048;-68
2021/10/22 01:57:15;;;;;;;9.00;1.83;;;9.60;92.70;;;;;;5079423;28;20032;-67
2021/10/22 01:59:41;;;;;;;10.27;2.03;;;9.60;92.70;;;;;;5079037;28;20058;-67
2021/10/22 02:02:07;;;;;;;8.18;2.05;;;9.60;92.70;;;;;;5080720;28;20027;-68
2021/10/22 02:04:33;;;;;;;8.20;2.10;;;9.60;92.70;;;;;;5083207;28;20032;-67
2021/10/22 02:06:59;;;;;;;13.95;2.63;;;9.60;92.70;;;;;;5077738;28;20103;-68
2021/10/22 02:09:25;;;;;;;9.13;2.80;;;9.60;92.70;;;;;;5081670;28;20073;-68
2021/10/22 02:11:51;;;;;;;10.10;2.30;;;9.60;92.70;;;;;;5075965;28;20032;-68
2021/10/22 02:14:16;;;;;;;6.78;2.35;;;9.50;92.70;;;;;;5069711;28;20059;-68
2021/10/22 02:16:43;;;;;;;10.45;2.70;;;9.50;92.70;;;;;;5071472;28;20067;-68
2021/10/22 02:19:09;;;;;;;9.23;2.17;;;9.60;92.70;;;;;;5071727;28;20056;-68
2021/10/22 02:21:36;;;;;;;7.78;1.98;;;9.50;92.70;;;;;;5071245;28;20032;-68
2021/10/22 02:24:01;;;;;;;9.40;2.08;;;9.60;92.70;;;;;;5070035;28;20028;-68
2021/10/22 02:26:27;;;;;;;12.75;2.60;;;9.50;92.70;;;;;;5072914;28;20028;-67
2021/10/22 02:28:52;;;;;;;7.10;2.20;;;9.60;92.70;;;;;;5078433;28;20620;-67
2021/10/22 02:31:19;;;;;;;10.95;2.20;;;9.60;92.70;;;;;;5089975;28;20027;-67
2021/10/22 02:33:45;;;;;;;8.70;1.95;;;9.60;92.70;;;;;;5073424;28;20039;-67
2021/10/22 02:36:11;;;;;;;7.18;2.03;;;9.60;92.70;;;;;;5071234;28;20070;-67
2021/10/22 02:38:37;;;;;;;7.35;2.65;;;9.60;92.70;;;;;;5071095;28;20413;-67
2021/10/22 02:41:02;;;;;;;13.88;2.67;;;9.60;92.70;;;;;;5086249;28;20127;-67
2021/10/22 02:43:28;;;;;;;9.35;1.95;;;9.60;92.80;;;;;;5083417;28;20506;-68
2021/10/22 02:45:53;;;;;;;9.52;2.55;;;9.60;92.80;;;;;;5070964;28;20052;-67
2021/10/22 02:48:19;;;;;;;10.65;3.13;;;9.60;92.80;;;;;;5077633;28;20028;-67
2021/10/22 02:50:45;;;;;;;10.15;2.33;;;9.60;92.80;;;;;;5082065;28;20024;-67
2021/10/22 02:53:11;;;;;;;7.90;2.53;;;9.70;92.80;;;;;;5087752;28;20104;-67
2021/10/22 02:55:36;;;;;;;10.48;2.33;;;9.70;92.80;;;;;;5091094;28;20134;-67
2021/10/22 02:58:02;;;;;;;10.00;2.33;;;9.70;92.80;;;;;;5088849;28;20017;-67
2021/10/22 03:00:28;;;;;;;7.82;2.15;;;9.70;92.80;;;;;;5087369;28;20028;-68
2021/10/22 03:02:53;;;;;;;10.45;2.70;;;9.70;92.80;;;;;;5085699;28;20013;-67
2021/10/22 03:05:19;;;;;;;8.13;3.15;;;9.70;92.70;;;;;;5070655;28;20571;-67
2021/10/22 03:07:45;;;;;;;6.72;2.22;;;9.70;92.80;;;;;;5072472;28;20109;-68
2021/10/22 03:10:11;;;;;;;6.88;2.33;;;9.80;92.70;;;;;;5089729;28;20113;-67
2021/10/22 03:12:36;;;;;;;6.75;1.70;;;9.80;92.70;;;;;;5089677;28;20020;-68
2021/10/22 03:15:03;;;;;;;6.45;2.08;;;9.80;92.70;;;;;;5071722;28;20148;-68
2021/10/22 03:17:28;;;;;;;7.95;2.20;;;9.80;92.70;;;;;;5069955;28;20036;-67
2021/10/22 03:19:54;;;;;;;8.63;2.53;;;9.80;92.70;;;;;;5076195;28;20051;-68
2021/10/22 03:22:20;;;;;;;10.65;2.80;;;9.80;92.70;;;;;;5074262;28;20020;-67
2021/10/22 03:24:45;;;;;;;8.40;1.77;;;9.90;92.70;;;;;;5073464;28;20024;-67
2021/10/22 03:27:12;;;;;;;8.18;2.13;;;9.90;92.70;;;;;;5074357;28;20032;-67
2021/10/22 03:29:38;;;;;;;6.60;1.92;;;9.90;92.60;;;;;;5075547;28;20024;-68
2021/10/22 03:32:04;;;;;;;11.75;2.50;;;9.90;92.60;;;;;;5074090;28;20040;-68
2021/10/22 03:34:30;;;;;;;7.85;2.30;;;9.90;92.60;;;;;;5074535;28;20028;-67
2021/10/22 03:36:56;;;;;;;10.18;2.13;;;9.90;92.60;;;;;;5085799;28;20097;-67
2021/10/22 03:39:22;;;;;;;6.80;2.15;;;9.90;92.60;;;;;;5081172;28;20496;-67
2021/10/22 03:41:47;;;;;;;9.75;3.40;;;9.90;92.50;;;;;;5073471;28;20032;-68
2021/10/22 03:44:12;;;;;;;11.23;2.95;;;10.00;92.50;;;;;;5073929;28;20023;-68
2021/10/22 03:46:38;;;;;;;9.82;2.10;;;9.90;92.60;;;;;;5072493;28;20547;-68
2021/10/22 03:49:03;;;;;;;8.57;2.00;;;10.00;92.60;;;;;;5076342;28;20047;-67
2021/10/22 03:51:29;;;;;;;6.55;1.67;;;10.00;92.50;;;;;;5073556;28;20038;-68
2021/10/22 03:53:55;;;;;;;4.90;2.03;;;10.00;92.50;;;;;;5076565;28;20077;-68
2021/10/22 03:56:20;;;;;;;9.43;2.08;;;10.00;92.50;;;;;;5073135;28;20426;-68
2021/10/22 03:58:46;;;;;;;6.28;1.90;;;10.00;92.50;;;;;;5076176;28;20054;-68
2021/10/22 04:01:12;;;;;;;11.15;2.40;;;10.00;92.50;;;;;;5091317;28;20073;-68
2021/10/22 04:03:37;;;;;;;8.70;2.70;;;10.00;92.60;;;;;;5081514;28;20035;-68
2021/10/22 04:06:03;;;;;;;7.25;2.47;;;10.00;92.40;;;;;;5072205;28;20025;-68
2021/10/22 04:08:28;;;;;;;5.90;1.95;;;10.00;92.40;;;;;;5072917;28;20028;-68
2021/10/22 04:10:54;;;;;;;8.48;2.28;;;10.00;92.40;;;;;;5073618;28;20013;-68
2021/10/22 04:13:20;;;;;;;5.95;1.95;;;10.00;92.40;;;;;;5073017;28;20039;-68
2021/10/22 04:15:46;;;;;;;6.88;2.03;;;10.00;92.40;;;;;;5076666;28;20131;-68
2021/10/22 04:18:11;;;;;;;10.65;2.25;;;10.00;92.40;;;;;;5079143;28;20032;-68
2021/10/22 04:20:37;;;;;;;8.38;2.10;;;10.00;92.40;;;;;;5091248;28;20116;-68
2021/10/22 04:23:03;;;;;;;9.55;1.75;;;10.00;92.30;;;;;;5082709;28;20037;-68
2021/10/22 04:25:29;;;;;;;9.43;2.55;;;10.00;92.30;;;;;;5089591;28;20042;-68
2021/10/22 04:27:55;;;;;;;10.02;2.13;;;10.00;92.40;;;;;;5084331;28;20052;-68
2021/10/22 04:30:21;;;;;;;13.68;3.00;;;10.00;92.30;;;;;;5075620;28;20040;-68
2021/10/22 04:32:47;;;;;;;9.25;1.92;;;10.10;92.30;;;;;;5076144;28;20503;-68
2021/10/22 04:35:13;;;;;;;12.57;2.67;;;10.00;92.20;;;;;;5079558;28;20052;-68
2021/10/22 04:37:50;;;;;;;9.13;2.00;;;10.00;92.30;;;;;;5078195;28;20048;-67
2021/10/22 04:40:31;;;;;;;6.22;1.95;;;10.00;92.30;;;;;;5089865;28;20135;-68
2021/10/22 04:42:59;;;;;;;3.80;2.20;;;9.90;92.30;;;;;;5093360;28;20368;-68
2021/10/22 04:45:24;;;;;;;5.78;2.40;;;9.90;92.20;;;;;;5075024;28;20131;-68
2021/10/22 04:47:50;;;;;;;6.35;1.80;;;10.00;92.30;;;;;;5079866;28;20555;-67
2021/10/22 04:50:16;;;;;;;9.90;1.95;;;9.90;92.20;;;;;;5089392;28;20115;-68
2021/10/22 04:52:41;;;;;;;7.25;1.98;;;10.00;92.20;;;;;;5090518;28;20024;-67
2021/10/22 04:55:08;;;;;;;8.80;2.08;;;10.00;92.20;;;;;;5074744;28;20063;-68
2021/10/22 04:57:34;;;;;;;8.20;2.20;;;10.00;92.20;;;;;;5091334;28;20476;-67
2021/10/22 05:00:00;;;;;;;9.50;2.42;;;10.00;92.30;;;;;;5083046;28;20119;-68
2021/10/22 05:02:25;;;;;;;8.27;2.40;;;10.00;92.30;;;;;;5086801;28;20107;-67
2021/10/22 05:04:51;;;;;;;4.80;1.42;;;10.00;92.20;;;;;;5072102;28;20039;-66
2021/10/22 05:07:16;;;;;;;5.85;1.85;;;10.00;92.20;;;;;;5078448;28;20111;-68
2021/10/22 05:09:42;;;;;;;6.15;2.17;;;10.00;92.20;;;;;;5084639;28;20459;-66
2021/10/22 05:12:07;;;;;;;8.60;2.92;;;10.00;92.20;;;;;;5073768;28;20518;-65
2021/10/22 05:14:34;;;;;;;8.43;2.10;;;9.90;92.20;;;;;;5072473;28;20123;-65
2021/10/22 05:17:00;;;;;;;8.63;2.20;;;9.90;92.20;;;;;;5080866;28;20032;-64
2021/10/22 05:19:26;;;;;;;10.18;2.72;;;10.00;92.30;;;;;;5081172;28;20662;-64
2021/10/22 05:21:52;;;;;;;8.65;2.05;;;10.00;92.40;;;;;;5086818;28;20036;-64
2021/10/22 05:24:17;;;;;;;6.13;2.00;;;9.90;92.40;;;;;;5084732;28;20124;-64
2021/10/22 05:26:43;;;;;;;8.80;2.35;;;10.00;92.40;;;;;;5092224;28;20024;-66
2021/10/22 05:29:08;;;;;;;10.25;2.75;;;10.00;92.40;;;;;;5089341;28;20430;-64
2021/10/22 05:31:34;;;;;;;12.48;2.75;;;9.90;92.30;;;;;;5085350;28;20028;-64
2021/10/22 05:33:59;;;;;;;7.97;1.92;;;9.90;92.30;;;;;;5075269;28;20116;-65
2021/10/22 05:36:25;;;;;;;7.95;2.30;;;10.00;92.30;;;;;;5071896;28;20086;-64
2021/10/22 05:38:51;;;;;;;6.45;2.08;;;10.00;92.30;;;;;;5071062;28;20071;-64
2021/10/22 05:41:17;;;;;;;7.85;1.85;;;10.00;92.30;;;;;;5087736;28;20055;-64
2021/10/22 05:43:43;;;;;;;11.52;2.30;;;10.00;92.30;;;;;;5081760;28;20052;-64
2021/10/22 05:46:08;;;;;;;8.65;1.92;;;10.00;92.30;;;;;;5074424;28;20091;-64
2021/10/22 05:48:34;;;;;;;10.40;2.42;;;10.00;92.30;;;;;;5086110;28;20012;-64
2021/10/22 05:51:00;;;;;;;5.43;2.55;;;10.00;92.20;;;;;;5070260;28;20390;-64
2021/10/22 05:53:26;;;;;;;8.60;2.47;;;10.00;92.20;;;;;;5071687;28;20036;-64
2021/10/22 05:55:51;;;;;;;9.00;2.72;;;10.00;92.20;;;;;;5072917;28;20132;-64
2021/10/22 05:58:17;;;;;;;7.15;2.13;;;10.00;92.20;;;;;;5072112;28;23513;-64
2021/10/22 06:00:43;;;;;;;8.10;2.30;;;10.00;92.20;;;;;;5075695;28;20032;-64
2021/10/22 06:03:09;;;;;;;7.53;2.45;;;10.00;92.10;;;;;;5071335;28;20095;-64
2021/10/22 06:05:38;;;;;;;8.80;1.85;;;10.00;92.10;;;;;;5083052;28;20345;-64
2021/10/22 06:08:05;;;;;;;10.52;2.10;;;10.00;92.10;;;;;;5073565;28;20062;-64
2021/10/22 06:10:30;;;;;;;8.63;2.08;;;10.10;92.10;;;;;;5080797;28;20035;-64
2021/10/22 06:12:56;;;;;;;7.97;2.05;;;10.00;92.10;;;;;;5072678;28;20024;-64
2021/10/22 06:15:22;;;;;;;9.80;2.42;;;10.10;92.10;;;;;;5076647;28;20028;-65
2021/10/22 06:17:47;;;;;;;5.43;1.88;;;10.10;92.00;;;;;;5072468;28;20082;-65
2021/10/22 06:20:15;;;;;;;7.97;2.20;;;10.10;92.00;;;;;;5070995;28;20089;-70
2021/10/22 06:25:25;;;;;;;5.70;2.13;;;10.20;92.00;;;;;;5077068;28;20039;-64
2021/10/22 06:27:52;;;;;;;13.65;3.03;;;10.20;92.00;;;;;;5075166;28;20021;-64
2021/10/22 06:30:18;;;;;;;5.93;2.10;;;10.20;91.90;;;;;;5071423;28;20040;-65
2021/10/22 06:32:43;;;;;;;8.38;1.80;;;10.30;91.90;;;;;;5084340;28;20035;-65
2021/10/22 06:35:08;;;;;;;10.52;2.03;;;10.30;91.80;;;;;;5080508;28;20028;-65
2021/10/22 06:37:34;;;;;;;7.60;2.17;;;10.30;91.70;;;;;;5076428;28;20025;-65
2021/10/22 06:40:00;;;;;;;6.75;2.20;;;10.40;91.60;;;;;;5072585;28;20025;-65
2021/10/22 06:42:25;;;;;;;6.95;2.40;;;10.40;91.60;;;;;;5078985;28;20027;-64
2021/10/22 06:44:51;;;;;;;8.43;2.50;;;10.50;91.50;;;;;;5078628;28;20021;-64
2021/10/22 06:47:16;;;;;;;8.20;2.30;;;10.50;91.50;;;;;;5076524;28;20028;-64
2021/10/22 06:49:42;;;;;;;6.93;2.10;;;10.50;91.50;;;;;;5080501;28;20035;-64
2021/10/22 06:52:07;;;;;;;6.28;1.90;;;10.60;91.40;;;;;;5073629;28;20029;-64
2021/10/22 06:54:33;;;;;;;6.80;1.95;;;10.60;91.30;;;;;;5080994;28;20051;-64
2021/10/22 06:57:01;;;;;;;7.60;2.13;;;10.60;91.20;;;;;;5082801;28;20488;-65
2021/10/22 06:59:26;;;;;;;7.53;2.10;;;10.60;91.20;;;;;;5081818;28;20024;-64
2021/10/22 07:01:52;;;;;;;6.95;2.20;;;10.70;91.10;;;;;;5077636;28;20100;-65
2021/10/22 07:04:18;;;;;;;7.65;1.80;;;10.70;91.00;;;;;;5076835;28;20037;-64
2021/10/22 07:09:28;;;;;;;8.77;2.07;;;10.70;90.90;;;;;;5074774;28;20036;-63
2021/10/22 07:11:54;;;;;;;5.57;1.58;;;10.80;90.80;;;;;;5074098;28;20042;-63
2021/10/22 07:14:20;;;;;;;9.48;2.10;;;10.80;90.80;;;;;;5074103;28;20101;-65
2021/10/22 07:16:45;;;;;;;7.65;1.92;;;10.80;90.70;;;;;;5074598;28;20029;-64
2021/10/22 07:19:10;;;;;;;8.00;2.70;;;10.80;90.60;;;;;;5074534;28;20107;-63
2021/10/22 07:21:47;;;;;;;5.70;1.80;;;10.90;90.60;;;;;;5080008;28;20020;-64
2021/10/22 07:24:18;;;;;;;6.30;1.77;;;10.90;90.50;;;;;;5080565;28;20024;-64
2021/10/22 07:26:44;;;;;;;5.07;2.10;;;10.90;90.50;;;;;;5082619;28;20286;-65
2021/10/22 07:29:09;;;;;;;18.33;4.68;;;11.00;90.50;;;;;;5074313;28;20009;-64
2021/10/22 07:31:35;;;;;;;9.52;2.60;;;11.00;90.90;;;;;;5073735;28;20565;-64
2021/10/22 07:34:00;;;;;;;7.40;1.80;;;11.00;90.60;;;;;;5092823;28;20109;-64
2021/10/22 07:36:26;;;;;;;10.45;2.22;;;11.10;90.40;;;;;;5080030;28;20036;-64
2021/10/22 07:38:51;;;;;;;7.88;2.28;;;11.10;90.30;;;;;;5078898;28;20750;-65
2021/10/22 07:41:17;;;;;;;4.75;2.13;;;11.10;90.20;;;;;;5071881;28;20124;-64
2021/10/22 07:43:44;;;;;;;6.30;2.08;;;11.20;90.20;;;;;;5073803;28;20033;-64
2021/10/22 07:46:09;;;;;;;8.90;2.17;;;11.20;90.10;;;;;;5072302;28;20032;-64
2021/10/22 07:48:35;;;;;;;5.63;2.42;;;11.20;90.00;;;;;;5081092;28;20504;-64
2021/10/22 07:51:01;;;;;;;6.90;1.80;;;11.30;90.10;;;;;;5083208;28;20028;-64
2021/10/22 07:53:27;;;;;;;4.60;1.90;;;11.20;90.00;;;;;;5075575;28;20048;-64
2021/10/22 07:55:52;;;;;;;5.63;2.53;;;11.20;90.00;;;;;;5083846;28;20037;-65
2021/10/22 07:58:18;;;;;;;8.63;1.92;;;11.30;89.90;;;;;;5074874;28;20024;-64
2021/10/22 08:00:44;;;;;;;6.10;1.80;;;11.30;89.70;;;;;;5092859;28;20478;-64
2021/10/22 08:03:10;;;;;;;9.43;2.90;;;11.30;89.60;;;;;;5087122;28;20028;-63
2021/10/22 08:05:35;;;;;;;7.43;1.90;;;11.40;89.60;;;;;;5092737;28;20028;-64
2021/10/22 08:08:02;;;;;;;12.18;2.10;;;11.40;89.30;;;;;;5080661;28;20372;-64
2021/10/22 08:10:28;;;;;;;6.72;2.03;;;11.40;89.20;;;;;;5084844;28;20123;-64
2021/10/22 08:12:54;;;;;;;7.05;2.08;;;11.40;89.10;;;;;;5072322;28;20037;-64
2021/10/22 08:15:19;;;;;;;10.40;2.33;;;11.40;89.10;;;;;;5077188;28;20384;-64
2021/10/22 08:17:45;;;;;;;8.85;2.22;;;11.40;89.00;;;;;;5071220;28;20021;-64
2021/10/22 08:20:16;;;;;;;12.52;2.28;;;11.40;88.80;;;;;;5074495;28;20040;-64
2021/10/22 08:22:42;;;;;;;4.88;1.83;;;11.40;89.00;;;;;;5073562;28;20021;-64
2021/10/22 08:25:13;;;;;;;7.43;2.53;;;11.50;88.80;;;;;;5078712;28;20038;-65
2021/10/22 08:27:47;;;;;;;8.02;2.20;;;11.50;88.60;;;;;;5075070;28;20052;-64
2021/10/22 08:30:21;;;;;;;8.52;2.33;;;11.50;88.90;;;;;;5086596;28;20032;-64
2021/10/22 08:32:51;;;;;;;7.57;2.38;;;11.50;88.40;;;;;;5077771;28;20025;-64
2021/10/22 08:35:18;;;;;;;6.65;1.80;;;11.50;88.30;;;;;;5078366;28;20041;-65
2021/10/22 08:37:44;;;;;;;6.40;2.30;;;11.50;87.90;;;;;;5085662;28;20021;-65
2021/10/22 08:40:11;;;;;;;8.30;2.45;;;11.50;88.00;;;;;;5077984;28;20559;-65
2021/10/22 08:42:37;;;;;;;8.02;2.35;;;11.50;87.90;;;;;;5072746;28;20059;-65
2021/10/22 08:45:04;;;;;;;8.57;2.30;;;11.50;88.10;;;;;;5076772;28;20040;-65
2021/10/22 08:47:31;;;;;;;8.55;2.42;;;11.60;88.50;;;;;;5071595;28;20033;-65
2021/10/22 08:49:58;;;;;;;11.20;2.75;;;11.60;87.90;;;;;;5078815;28;20035;-65
2021/10/22 08:52:26;;;;;;;8.85;2.53;;;11.60;87.90;;;;;;5076325;28;20027;-64
2021/10/22 08:54:52;;;;;;;8.43;2.05;;;11.70;87.70;;;;;;5072072;28;20040;-65
2021/10/22 08:57:17;;;;;;;6.28;1.92;;;11.70;87.70;;;;;;5091580;28;20414;-65
2021/10/22 08:59:43;;;;;;;15.57;4.07;;;11.70;87.50;;;;;;5091127;28;20024;-65
2021/10/22 09:02:14;;;;;;;9.07;2.65;;;11.80;87.30;;;;;;5077429;28;20063;-65
2021/10/22 09:04:41;;;;;;;8.77;2.33;;;11.80;87.10;;;;;;5072405;28;20078;-65
2021/10/22 09:07:07;;;;;;;6.25;2.20;;;11.80;87.10;;;;;;5078291;28;20031;-65
2021/10/22 09:09:33;;;;;;;6.45;3.13;;;11.90;87.30;;;;;;5084046;28;20020;-65
2021/10/22 09:11:58;;;;;;;8.07;2.88;;;11.90;86.90;;;;;;5085498;28;20499;-65
2021/10/22 09:14:26;;;;;;;9.23;2.50;;;11.90;86.70;;;;;;5074381;28;20064;-65
2021/10/22 09:16:53;;;;;;;7.07;2.63;;;12.00;86.80;;;;;;5069706;28;20028;-65
2021/10/22 09:19:41;;;;;;;6.78;2.45;;;12.00;86.70;;;;;;5075526;28;20099;-64
2021/10/22 09:22:28;;;;;;;8.80;4.70;;;12.10;86.80;;;;;;5072421;28;20035;-64
2021/10/22 09:25:00;;;;;;;8.35;2.22;;;12.20;86.50;;;;;;5075387;28;20081;-64
2021/10/22 09:27:31;;;;;;;6.68;2.33;;;12.30;86.30;;;;;;5091885;28;20028;-64
2021/10/22 09:29:57;;;;;;;5.63;2.40;;;12.30;85.90;;;;;;5079483;28;20016;-64
2021/10/22 09:32:22;;;;;;;10.90;2.90;;;12.40;85.80;;;;;;5088581;28;20081;-65
2021/10/22 09:34:51;;;;;;;7.95;3.22;;;12.40;86.20;;;;;;5104592;28;20036;-64
2021/10/22 09:37:17;;;;;;;7.22;2.20;;;12.50;85.50;;;;;;5090298;28;20483;-65
2021/10/22 09:39:42;;;;;;;9.55;3.33;;;12.50;85.40;;;;;;5090778;28;20028;-65
2021/10/22 09:42:17;;;;;;;7.32;2.70;;;12.50;85.50;;;;;;5077079;28;20429;-65
2021/10/22 09:44:45;;;;;;;5.50;3.10;;;12.50;86.00;;;;;;5073424;28;20077;-65
2021/10/22 09:47:14;;;;;;;10.55;2.83;;;12.60;85.40;;;;;;5080592;28;20060;-65
2021/10/22 09:49:52;;;;;;;9.15;2.80;;;12.50;85.00;;;;;;5087195;28;20423;-65
2021/10/22 09:52:20;;;;;;;7.50;2.88;;;12.50;84.90;;;;;;5072033;28;20067;-66
2021/10/22 09:54:46;;;;;;;6.70;2.70;;;12.60;84.90;;;;;;5074625;28;20123;-65
2021/10/22 09:57:17;;;;;;;10.98;3.40;;;12.60;84.50;;;;;;5092127;28;20425;-65
2021/10/22 09:59:43;;;;;;;7.07;2.60;;;12.60;84.50;;;;;;5083845;28;20613;-65
2021/10/22 10:02:10;;;;;;;12.10;2.67;;;12.50;84.40;;;;;;5081202;28;20046;-65
2021/10/22 10:04:37;;;;;;;9.63;2.80;;;12.60;84.20;;;;;;5089135;28;20028;-65
2021/10/22 10:07:05;;;;;;;10.70;2.80;;;12.60;84.20;;;;;;5069727;28;20028;-64
2021/10/22 10:09:31;;;;;;;9.10;2.90;;;12.60;84.30;;;;;;5077829;28;20028;-65
2021/10/22 10:12:00;;;;;;;8.60;2.83;;;12.60;84.10;;;;;;5070723;28;20358;-65
2021/10/22 10:14:27;;;;;;;6.13;2.17;;;12.60;84.30;;;;;;5071694;28;20037;-65
2021/10/22 10:16:54;;;;;;;5.70;2.70;;;12.60;84.60;;;;;;5075256;28;20036;-65
2021/10/22 10:19:43;;;;;;;10.93;3.72;;;12.50;84.50;;;;;;5078643;28;20083;-65
2021/10/22 10:22:12;;;;;;;6.63;2.92;;;12.50;84.60;;;;;;5083915;28;20408;-65
2021/10/22 10:24:43;;;;;;;10.48;4.25;;;12.50;84.60;;;;;;5084408;28;20040;-65
2021/10/22 10:27:16;;;;;;;6.53;2.90;;;12.50;84.50;;;;;;5074730;28;20389;-65
2021/10/22 10:29:47;;;;;;;9.02;3.05;;;12.50;84.60;;;;;;5082121;28;20059;-65
2021/10/22 10:32:16;;;;;;;8.75;3.50;;;12.50;84.50;;;;;;5076858;28;20510;-65
2021/10/22 10:34:45;;;;;;;10.75;2.90;;;12.50;84.50;;;;;;5090265;28;20046;-65
2021/10/22 10:37:38;;;;;;;8.85;3.10;;;12.40;84.50;;;;;;5074827;28;20077;-65
2021/10/22 10:40:08;;;;;;;13.77;4.03;;;12.50;84.80;;;;;;5081753;28;20024;-65
2021/10/22 10:42:48;;;;;;;5.65;2.38;;;12.50;84.70;;;;;;5083718;28;20031;-65
2021/10/22 10:45:24;;;;;;;11.15;3.83;;;12.40;84.40;;;;;;5078136;28;20459;-65
2021/10/22 10:47:57;;;;;;;9.45;2.70;;;12.40;84.50;;;;;;5074058;28;20028;-65
2021/10/22 10:50:45;;;;;;;9.48;3.20;;;12.40;84.40;;;;;;5080481;28;20590;-65
2021/10/22 10:53:15;;;;;;;14.55;4.43;;;12.40;84.50;;;;;;5073765;28;20132;-65
2021/10/22 10:55:47;;;;;;;8.18;2.80;;;12.40;84.70;;;;;;5073447;28;20492;-65
2021/10/22 10:58:16;;;;;;;14.57;3.13;;;12.40;84.60;;;;;;5073631;28;20025;-65
2021/10/22 11:00:43;;;;;;;9.68;3.17;;;12.40;84.70;;;;;;5075443;28;20609;-65
2021/10/22 11:03:19;;;;;;;8.02;2.35;;;12.40;84.70;;;;;;5082432;28;20044;-65
2021/10/22 11:05:49;;;;;;;7.68;3.08;;;12.40;85.00;;;;;;5077722;28;20028;-65
2021/10/22 11:08:22;;;;;;;10.65;3.30;;;12.40;85.20;;;;;;5074647;28;20082;-65
2021/10/22 11:11:17;;;;;;;7.33;2.67;;;12.40;85.50;;;;;;5081174;28;20561;-65
2021/10/22 11:13:44;;;;;;;7.38;2.70;;;12.40;85.50;;;;;;5079166;28;20134;-65
2021/10/22 11:16:20;;;;;;;10.07;3.25;;;12.40;85.80;;;;;;5073603;28;20508;-65
2021/10/22 11:18:57;;;;;;;8.23;3.42;;;12.40;85.80;;;;;;5073642;28;20162;-65
2021/10/22 11:21:30;;;;;;;6.95;3.13;;;12.30;85.80;;;;;;5080658;28;20032;-65
2021/10/22 11:23:57;;;;;;;6.78;3.00;;;12.40;85.60;;;;;;5085806;28;20035;-65
2021/10/22 11:26:23;;;;;;;7.60;2.72;;;12.30;85.40;;;;;;5082818;28;20074;-65
2021/10/22 11:28:52;;;;;;;7.40;2.47;;;12.30;85.30;;;;;;5073704;28;20020;-65
2021/10/22 11:31:39;;;;;;;9.85;2.30;;;12.40;85.30;;;;;;5074597;28;20067;-65
2021/10/22 11:34:06;;;;;;;8.38;3.13;;;12.40;85.30;;;;;;5086515;28;20029;-65
2021/10/22 11:36:33;;;;;;;8.10;2.55;;;12.40;85.10;;;;;;5075370;28;20044;-66
2021/10/22 11:38:59;;;;;;;5.47;2.70;;;12.40;84.80;;;;;;5081621;28;20048;-66
2021/10/22 11:41:25;;;;;;;5.85;2.20;;;12.50;84.70;;;;;;5076890;28;20029;-67
2021/10/22 11:44:08;;;;;;;4.20;1.98;;;12.60;84.60;;;;;;5072937;28;20028;-67
2021/10/22 11:46:47;;;;;;;5.28;2.08;;;12.60;84.40;;;;;;5077382;28;20101;-66
2021/10/22 11:49:26;;;;;;;6.80;2.08;;;12.70;84.30;;;;;;5076871;28;20077;-66
2021/10/22 11:51:57;;;;;;;11.02;2.47;;;12.70;84.20;;;;;;5078946;28;20024;-66
2021/10/22 11:54:33;;;;;;;7.13;2.40;;;12.80;84.10;;;;;;5075437;28;20082;-66
2021/10/22 11:57:13;;;;;;;6.72;2.20;;;12.80;83.50;;;;;;5081740;28;20036;-67
2021/10/22 11:59:47;;;;;;;5.60;2.13;;;12.90;83.20;;;;;;5073241;28;20035;-66
2021/10/22 12:02:14;;;;;;;7.28;2.28;;;12.90;83.20;;;;;;5079569;28;20024;-66
2021/10/22 12:04:40;;;;;;;8.60;2.40;;;12.90;82.90;;;;;;5077412;28;20585;-66
2021/10/22 12:07:08;;;;;;;5.53;2.13;;;12.90;83.00;;;;;;5077646;28;20028;-65
2021/10/22 12:09:41;;;;;;;7.80;2.90;;;13.00;82.70;;;;;;5076114;28;20036;-66
2021/10/22 12:12:07;;;;;;;8.60;3.28;;;13.00;82.70;;;;;;5081278;28;20081;-65
2021/10/22 12:14:34;;;;;;;7.07;2.05;;;13.10;83.50;;;;;;5083443;28;20484;-66
2021/10/22 12:17:01;;;;;;;7.85;3.25;;;13.10;82.80;;;;;;5071783;28;20051;-66
2021/10/22 12:19:27;;;;;;;7.43;2.40;;;13.10;82.20;;;;;;5074564;28;20031;-66
2021/10/22 12:21:53;;;;;;;5.18;1.90;;;13.10;82.60;;;;;;5080911;28;20029;-65
2021/10/22 12:24:19;;;;;;;7.30;2.20;;;13.20;82.10;;;;;;5075844;28;20020;-65
2021/10/22 12:26:45;;;;;;;4.80;2.03;;;13.20;81.80;;;;;;5079542;28;20119;-65
2021/10/22 12:29:12;;;;;;;4.05;1.85;;;13.10;81.20;;;;;;5074652;28;20450;-65
2021/10/22 12:31:44;;;;;;;5.05;2.10;;;13.10;81.60;;;;;;5072460;28;20078;-65
2021/10/22 12:34:11;;;;;;;5.22;2.08;;;13.10;81.30;;;;;;5071615;28;20031;-65
2021/10/22 12:36:38;;;;;;;6.38;2.10;;;13.10;81.80;;;;;;5080851;28;20074;-65
2021/10/22 12:39:24;;;;;;;5.85;1.80;;;13.10;82.00;;;;;;5072172;28;20093;-65
2021/10/22 12:41:50;;;;;;;6.22;2.42;;;13.10;82.00;;;;;;5072054;28;20029;-65
2021/10/22 12:44:18;;;;;;;5.88;2.03;;;13.10;82.00;;;;;;5075325;28;20024;-65
2021/10/22 12:46:54;;;;;;;4.65;2.13;;;13.10;82.00;;;;;;5072336;28;20032;-67
2021/10/22 12:49:25;;;;;;;7.72;2.38;;;13.10;82.30;;;;;;5071971;28;20032;-65
2021/10/22 12:52:04;;;;;;;4.70;2.05;;;13.10;82.30;;;;;;5071856;28;20426;-65
2021/10/22 12:54:43;;;;;;;7.65;2.05;;;13.10;82.60;;;;;;5076123;28;20112;-65